Time;durP1;ratioP1;P1;durP2;ratioP2;P2;SDS_P1;SDS_P2;PMS_P1;PMS_P2;Temp;Humidity;BMP_temperature;BMP_pressure;BME280_temperature;BME280_humidity;BME280_pressure;Samples;Min_cycle;Max_cycle;Signal;HPM_P1;HPM_P2
2023/05/11 00:00:36;;;;;;;21.75;11.95;;;;;;;12.52;100.00;101503.94;6250443;22;20398;-81
2023/05/11 00:03:02;;;;;;;21.23;11.60;;;;;;;12.50;100.00;101492.94;6246901;22;20021;-81
2023/05/11 00:05:29;;;;;;;18.05;11.48;;;;;;;12.50;100.00;101492.94;6250093;22;20025;-81
2023/05/11 00:07:55;;;;;;;19.40;12.40;;;;;;;12.46;100.00;101497.66;6249306;22;20323;-81
2023/05/11 00:10:22;;;;;;;22.25;12.68;;;;;;;12.43;100.00;101495.84;6250028;22;20395;-81
2023/05/11 00:12:49;;;;;;;21.55;13.10;;;;;;;12.45;100.00;101490.09;6249555;22;20071;-81
2023/05/11 00:15:15;;;;;;;20.70;12.35;;;;;;;12.42;100.00;101494.38;6249723;22;20677;-81
2023/05/11 00:17:42;;;;;;;23.15;12.48;;;;;;;12.40;100.00;101498.66;6249536;22;20019;-81
2023/05/11 00:20:08;;;;;;;22.55;12.32;;;;;;;12.39;100.00;101502.53;6249268;22;20501;-81
2023/05/11 00:22:35;;;;;;;25.38;12.88;;;;;;;12.37;100.00;101489.59;6250057;22;20046;-80
2023/05/11 00:25:02;;;;;;;22.10;12.30;;;;;;;12.35;100.00;101482.03;6249206;22;20024;-81
2023/05/11 00:27:28;;;;;;;22.30;12.88;;;;;;;12.34;100.00;101471.78;6248615;22;20442;-81
2023/05/11 00:29:55;;;;;;;20.95;12.50;;;;;;;12.35;100.00;101471.34;6249535;22;20016;-81
2023/05/11 00:32:22;;;;;;;20.40;13.20;;;;;;;12.33;100.00;101476.38;6249255;22;20019;-81
2023/05/11 00:34:48;;;;;;;20.20;12.63;;;;;;;12.35;100.00;101481.28;6249597;22;20020;-81
2023/05/11 00:37:15;;;;;;;20.95;13.02;;;;;;;12.32;100.00;101482.88;6249624;22;20363;-81
2023/05/11 00:39:41;;;;;;;20.05;12.38;;;;;;;12.29;100.00;101486.44;6249812;22;20323;-81
2023/05/11 00:42:09;;;;;;;17.70;12.27;;;;;;;12.27;100.00;101494.13;6249055;22;20405;-81
2023/05/11 00:44:36;;;;;;;23.13;13.43;;;;;;;12.25;100.00;101488.47;6249919;22;20033;-81
2023/05/11 00:47:02;;;;;;;23.00;12.93;;;;;;;12.27;100.00;101490.69;6248088;22;20352;-81
2023/05/11 00:49:30;;;;;;;22.30;13.57;;;;;;;12.29;100.00;101491.00;6249830;22;20024;-81
2023/05/11 00:51:56;;;;;;;24.23;14.32;;;;;;;12.28;100.00;101482.25;6249216;22;20016;-81
2023/05/11 00:54:23;;;;;;;23.88;13.77;;;;;;;12.30;100.00;101490.59;6249345;22;20052;-82
2023/05/11 00:56:50;;;;;;;21.25;14.07;;;;;;;12.32;100.00;101492.81;6249386;22;20477;-82
2023/05/11 00:59:17;;;;;;;22.77;14.43;;;;;;;12.31;100.00;101486.00;6249648;22;20017;-81
2023/05/11 01:01:44;;;;;;;24.30;14.07;;;;;;;12.31;100.00;101488.66;6247470;22;20021;-81
2023/05/11 01:04:11;;;;;;;27.58;13.90;;;;;;;12.28;100.00;101492.19;6247206;22;20078;-82
2023/05/11 01:06:53;;;;;;;24.75;13.90;;;;;;;12.26;100.00;101483.88;6249613;22;20023;-82
2023/05/11 01:09:34;;;;;;;24.00;13.45;;;;;;;12.22;100.00;101480.56;6273459;22;20052;-82
2023/05/11 01:12:46;;;;;;;22.38;13.82;;;;;;;12.22;100.00;101488.56;6247308;22;20447;-81
2023/05/11 01:15:18;;;;;;;22.27;14.13;;;;;;;12.18;100.00;101487.94;6226564;22;20024;-82
2023/05/11 01:18:01;;;;;;;25.25;14.02;;;;;;;12.19;100.00;101492.09;6247538;22;20016;-82
2023/05/11 01:20:29;;;;;;;19.42;13.70;;;;;;;12.21;100.00;101495.84;6249980;22;20021;-82
2023/05/11 01:22:58;;;;;;;23.70;14.18;;;;;;;12.20;100.00;101499.69;6247265;22;20332;-82
2023/05/11 01:25:38;;;;;;;24.90;14.43;;;;;;;12.17;100.00;101495.22;6247951;22;20103;-81
2023/05/11 01:28:39;;;;;;;21.70;14.15;;;;;;;12.14;100.00;101501.41;6249471;22;20021;-81
2023/05/11 01:31:09;;;;;;;23.80;14.95;;;;;;;12.12;100.00;101505.69;6248700;22;20072;-82
2023/05/11 01:33:42;;;;;;;27.05;15.40;;;;;;;12.08;100.00;101503.13;6273534;22;20040;-82
2023/05/11 01:36:11;;;;;;;28.88;14.30;;;;;;;12.08;100.00;101499.72;6249112;22;20742;-82
2023/05/11 01:38:40;;;;;;;21.65;14.02;;;;;;;12.06;100.00;101494.81;6247667;22;20020;-82
2023/05/11 01:41:15;;;;;;;29.95;15.48;;;;;;;12.04;100.00;101494.50;6246938;22;20027;-82
2023/05/11 01:43:44;;;;;;;27.77;15.32;;;;;;;12.03;100.00;101485.72;6247076;22;20060;-81
2023/05/11 01:46:14;;;;;;;25.35;15.20;;;;;;;12.03;100.00;101485.72;6248823;22;20020;-82
2023/05/11 01:48:44;;;;;;;27.50;15.70;;;;;;;12.04;100.00;101491.81;6249474;22;20017;-83
2023/05/11 01:51:14;;;;;;;26.80;15.60;;;;;;;12.00;100.00;101497.28;6247525;22;20417;-82
2023/05/11 01:53:43;;;;;;;23.13;14.73;;;;;;;11.97;100.00;101505.41;6248722;22;20017;-82
2023/05/11 01:56:11;;;;;;;27.20;15.40;;;;;;;11.96;100.00;101506.59;6247157;22;20792;-82
2023/05/11 01:58:40;;;;;;;28.63;15.38;;;;;;;11.96;100.00;101501.25;6246971;22;20013;-83
2023/05/11 02:01:09;;;;;;;27.85;15.80;;;;;;;11.94;100.00;101503.59;6250297;22;20090;-81
2023/05/11 02:03:38;;;;;;;27.17;15.60;;;;;;;11.91;100.00;101499.88;6250974;22;20442;-83
2023/05/11 02:06:06;;;;;;;29.42;15.88;;;;;;;11.93;100.00;101499.44;6250110;22;20443;-82
2023/05/11 02:08:37;;;;;;;30.77;15.75;;;;;;;11.93;100.00;101502.09;6274245;22;20366;-83
2023/05/11 02:11:05;;;;;;;26.13;15.10;;;;;;;11.94;100.00;101504.34;6273671;22;20017;-82
2023/05/11 02:13:35;;;;;;;26.98;16.38;;;;;;;11.92;100.00;101500.63;6248126;22;20099;-82
2023/05/11 02:16:04;;;;;;;32.88;15.90;;;;;;;11.87;100.00;101509.16;6248161;22;20031;-82
2023/05/11 02:18:32;;;;;;;28.73;16.38;;;;;;;11.86;100.00;101502.34;6250784;22;20019;-82
2023/05/11 02:21:00;;;;;;;27.20;15.27;;;;;;;11.86;100.00;101508.41;6249904;22;20017;-82
2023/05/11 02:23:30;;;;;;;29.60;16.13;;;;;;;11.82;100.00;101505.09;6248727;22;20497;-82
2023/05/11 02:25:57;;;;;;;28.42;15.70;;;;;;;11.80;100.00;101510.13;6247805;22;20025;-81
2023/05/11 02:28:23;;;;;;;25.75;15.02;;;;;;;11.82;100.00;101515.03;6247970;22;20079;-82
2023/05/11 02:30:54;;;;;;;29.00;14.98;;;;;;;11.81;100.00;101514.28;6250265;22;20035;-81
2023/05/11 02:33:30;;;;;;;27.05;14.77;;;;;;;11.82;100.00;101509.69;6274527;22;20017;-82
2023/05/11 02:35:58;;;;;;;29.00;15.18;;;;;;;11.80;100.00;101512.03;6248330;22;20099;-83
2023/05/11 02:38:32;;;;;;;23.35;14.60;;;;;;;11.80;100.00;101507.47;6249112;22;20017;-82
2023/05/11 02:41:08;;;;;;;26.40;14.38;;;;;;;11.82;100.00;101507.03;6247697;22;20067;-81
2023/05/11 02:43:39;;;;;;;25.83;15.50;;;;;;;11.78;100.00;101509.81;6274006;22;20017;-81
2023/05/11 02:46:10;;;;;;;25.65;15.05;;;;;;;11.76;100.00;101514.78;6248204;22;20598;-81
2023/05/11 02:48:41;;;;;;;30.33;15.80;;;;;;;11.73;100.00;101510.31;6248820;22;20067;-81
2023/05/11 02:51:11;;;;;;;26.63;14.48;;;;;;;11.71;100.00;101504.66;6248228;22;20017;-81
2023/05/11 02:53:45;;;;;;;29.58;15.63;;;;;;;11.69;100.00;101507.75;6248636;22;20476;-80
2023/05/11 02:56:12;;;;;;;28.83;15.65;;;;;;;11.64;100.00;101502.94;6247789;22;20020;-81
2023/05/11 02:58:39;;;;;;;31.05;15.93;;;;;;;11.65;100.00;101506.38;6248426;22;20358;-81
2023/05/11 03:01:15;;;;;;;24.23;14.93;;;;;;;11.67;100.00;101512.03;6274351;22;20012;-81
2023/05/11 03:03:42;;;;;;;26.63;15.57;;;;;;;11.67;100.00;101514.69;6248576;22;20442;-81
2023/05/11 03:06:09;;;;;;;27.73;15.73;;;;;;;11.66;100.00;101519.28;6248010;22;20047;-81
2023/05/11 03:08:36;;;;;;;29.48;15.48;;;;;;;11.66;100.00;101527.28;6250661;22;20099;-81
2023/05/11 03:11:04;;;;;;;27.35;15.65;;;;;;;11.66;100.00;101518.53;6246979;22;20473;-81
2023/05/11 03:13:31;;;;;;;28.13;15.73;;;;;;;11.64;100.00;101510.94;6274013;22;20016;-81
2023/05/11 03:16:01;;;;;;;30.60;16.25;;;;;;;11.65;100.00;101511.69;6247880;22;20024;-82
2023/05/11 03:18:31;;;;;;;28.50;15.73;;;;;;;11.62;100.00;101507.22;6250536;22;20104;-81
2023/05/11 03:21:00;;;;;;;31.42;16.35;;;;;;;11.62;100.00;101507.97;6252133;22;20067;-81
2023/05/11 03:23:28;;;;;;;27.98;15.75;;;;;;;11.62;100.00;101513.28;6225882;22;20008;-81
2023/05/11 03:25:56;;;;;;;27.75;15.40;;;;;;;11.64;100.00;101510.94;6273440;22;20421;-81
2023/05/11 03:28:24;;;;;;;29.40;16.65;;;;;;;11.66;100.00;101505.19;6248452;22;20017;-81
2023/05/11 03:30:58;;;;;;;27.25;15.52;;;;;;;11.69;100.00;101505.09;6273957;22;20016;-81
2023/05/11 03:33:25;;;;;;;26.70;15.93;;;;;;;11.71;100.00;101502.00;6248391;22;20021;-80
2023/05/11 03:35:53;;;;;;;30.85;16.15;;;;;;;11.72;100.00;101502.72;6248166;22;20032;-80
2023/05/11 03:38:23;;;;;;;30.30;16.45;;;;;;;11.68;100.00;101487.59;6274306;22;20071;-81
2023/05/11 03:40:53;;;;;;;31.02;15.80;;;;;;;11.67;100.00;101496.00;6247796;22;20306;-82
2023/05/11 03:43:20;;;;;;;27.83;15.90;;;;;;;11.64;100.00;101494.94;6222811;22;20021;-82
2023/05/11 03:45:51;;;;;;;27.98;16.08;;;;;;;11.61;100.00;101497.72;6248131;22;20021;-81
2023/05/11 03:48:22;;;;;;;33.33;15.40;;;;;;;11.63;100.00;101490.03;6248272;22;20020;-82
2023/05/11 03:50:50;;;;;;;27.73;15.95;;;;;;;11.63;100.00;101493.47;6247951;22;20104;-81
2023/05/11 03:53:17;;;;;;;29.00;16.45;;;;;;;11.61;100.00;101493.13;6249978;22;20016;-81
2023/05/11 03:55:44;;;;;;;25.73;14.43;;;;;;;11.61;100.00;101490.47;6249463;22;20020;-82
2023/05/11 03:58:11;;;;;;;29.92;16.48;;;;;;;11.61;100.00;101487.06;6247755;22;20013;-81
2023/05/11 04:00:39;;;;;;;31.17;16.52;;;;;;;11.61;100.00;101484.38;6248528;22;20124;-81
2023/05/11 04:03:07;;;;;;;26.58;15.35;;;;;;;11.61;100.00;101498.47;6247581;22;20017;-81
2023/05/11 04:05:34;;;;;;;28.67;15.43;;;;;;;11.60;100.00;101493.56;6248137;22;20088;-81
2023/05/11 04:08:04;;;;;;;28.50;16.25;;;;;;;11.59;100.00;101492.84;6246588;22;20048;-81
2023/05/11 04:10:31;;;;;;;25.83;14.57;;;;;;;11.59;100.00;101497.44;6248072;22;20046;-81
2023/05/11 04:12:57;;;;;;;28.75;14.95;;;;;;;11.61;100.00;101500.38;6249746;22;20013;-82
2023/05/11 04:15:24;;;;;;;29.33;15.77;;;;;;;11.61;100.00;101501.13;6250391;22;20454;-81
2023/05/11 04:17:50;;;;;;;27.40;14.80;;;;;;;11.57;100.00;101503.19;6249750;22;20017;-82
2023/05/11 04:20:17;;;;;;;26.42;14.95;;;;;;;11.52;100.00;101501.06;6249967;22;20075;-83
2023/05/11 04:22:44;;;;;;;25.25;14.40;;;;;;;11.52;100.00;101509.06;6247033;22;20504;-82
2023/05/11 04:25:12;;;;;;;29.52;15.57;;;;;;;11.50;100.00;101510.66;6247552;22;20020;-82
2023/05/11 04:27:39;;;;;;;26.65;15.10;;;;;;;11.51;100.00;101510.22;6249806;22;20087;-82
2023/05/11 04:30:07;;;;;;;24.13;15.18;;;;;;;11.50;100.00;101518.66;6247577;22;20032;-82
2023/05/11 04:32:33;;;;;;;26.13;15.95;;;;;;;11.49;100.00;101517.91;6248095;22;20020;-81
2023/05/11 04:35:00;;;;;;;26.75;15.40;;;;;;;11.52;100.00;101521.63;6247521;22;20028;-81
2023/05/11 04:37:30;;;;;;;26.85;15.18;;;;;;;11.55;100.00;101526.13;6223106;22;20427;-81
2023/05/11 04:39:59;;;;;;;27.05;15.93;;;;;;;11.57;100.00;101521.84;6247476;22;20020;-82
2023/05/11 04:42:25;;;;;;;31.60;16.08;;;;;;;11.61;100.00;101524.38;6247962;22;20071;-81
2023/05/11 04:44:54;;;;;;;31.50;16.42;;;;;;;11.64;100.00;101521.63;6247596;22;20105;-81
2023/05/11 04:47:21;;;;;;;33.20;16.55;;;;;;;11.62;100.00;101521.28;6248242;22;20017;-82
2023/05/11 04:49:48;;;;;;;37.28;17.70;;;;;;;11.58;100.00;101519.94;6248319;22;20074;-81
2023/05/11 04:52:14;;;;;;;32.10;16.38;;;;;;;11.59;100.00;101522.19;6247374;22;20021;-81
2023/05/11 04:54:44;;;;;;;30.83;17.05;;;;;;;11.60;100.00;101518.31;6247687;22;20039;-82
2023/05/11 04:57:10;;;;;;;33.33;17.42;;;;;;;11.62;100.00;101523.97;6247412;22;20020;-82
2023/05/11 04:59:37;;;;;;;33.80;18.30;;;;;;;11.64;100.00;101526.94;6248307;22;20112;-82
2023/05/11 05:02:04;;;;;;;34.22;17.83;;;;;;;11.66;100.00;101524.59;6246974;22;20013;-81
2023/05/11 05:04:30;;;;;;;32.75;17.08;;;;;;;11.65;100.00;101523.09;6249901;22;20020;-82
2023/05/11 05:06:59;;;;;;;27.13;16.55;;;;;;;11.67;100.00;101530.69;6248283;22;20017;-82
2023/05/11 05:09:26;;;;;;;30.08;17.13;;;;;;;11.75;100.00;101521.31;6249992;22;20731;-82
2023/05/11 05:11:52;;;;;;;31.65;16.80;;;;;;;11.84;100.00;101518.03;6247821;22;20025;-82
2023/05/11 05:14:19;;;;;;;28.23;16.40;;;;;;;11.92;100.00;101533.38;6248393;22;20024;-82
2023/05/11 05:16:45;;;;;;;30.63;15.77;;;;;;;11.96;100.00;101535.94;6249498;22;20020;-82
2023/05/11 05:19:12;;;;;;;33.60;16.92;;;;;;;11.96;100.00;101534.03;6248325;22;20020;-82
2023/05/11 05:21:39;;;;;;;25.77;16.13;;;;;;;11.97;100.00;101537.44;6247934;22;20391;-83
2023/05/11 05:24:09;;;;;;;25.02;15.65;;;;;;;11.96;100.00;101538.59;6248015;22;20031;-82
2023/05/11 05:26:36;;;;;;;26.40;16.20;;;;;;;11.95;100.00;101539.78;6248877;22;20429;-84
2023/05/11 05:29:04;;;;;;;26.25;15.02;;;;;;;12.02;100.00;101542.19;6248016;22;20067;-83
2023/05/11 05:31:31;;;;;;;28.85;15.65;;;;;;;12.10;100.00;101538.13;6248762;22;20028;-82
2023/05/11 05:33:58;;;;;;;27.23;15.85;;;;;;;12.16;100.00;101546.34;6248793;22;20095;-84
2023/05/11 05:36:24;;;;;;;30.08;16.35;;;;;;;12.24;100.00;101544.94;6251176;22;20013;-82
2023/05/11 05:38:51;;;;;;;30.25;17.40;;;;;;;12.30;100.00;101548.56;6249845;22;20426;-84
2023/05/11 05:41:17;;;;;;;27.73;15.57;;;;;;;12.38;100.00;101554.44;6249577;22;20012;-79
2023/05/11 05:43:44;;;;;;;25.52;15.95;;;;;;;12.38;100.00;101555.19;6249144;22;20025;-80
2023/05/11 05:46:13;;;;;;;26.95;15.95;;;;;;;12.34;100.00;101555.28;6249789;22;20044;-84
2023/05/11 05:48:40;;;;;;;26.52;15.18;;;;;;;12.32;100.00;101562.97;6249318;22;20016;-80
2023/05/11 05:51:07;;;;;;;27.27;15.48;;;;;;;12.37;100.00;101564.38;6248592;22;20020;-79
2023/05/11 05:53:34;;;;;;;23.35;15.45;;;;;;;12.41;100.00;101570.31;6249510;22;20021;-79
2023/05/11 05:56:01;;;;;;;24.55;15.45;;;;;;;12.45;100.00;101567.53;6224151;22;20454;-83
2023/05/11 05:58:28;;;;;;;26.10;16.17;;;;;;;12.48;100.00;101574.69;6224261;22;20794;-81
2023/05/11 06:00:55;;;;;;;23.17;14.80;;;;;;;12.50;100.00;101577.66;6249944;22;20017;-81
2023/05/11 06:03:25;;;;;;;21.10;14.32;;;;;;;12.55;100.00;101572.50;6249821;22;20463;-83
2023/05/11 06:05:55;;;;;;;21.67;15.15;;;;;;;12.60;100.00;101577.31;6248778;22;20096;-80
2023/05/11 06:08:22;;;;;;;19.23;13.38;;;;;;;12.65;100.00;101581.34;6249736;22;20020;-82
2023/05/11 06:10:48;;;;;;;19.17;13.63;;;;;;;12.68;100.00;101580.50;6249421;22;20451;-82
2023/05/11 06:13:16;;;;;;;22.98;14.68;;;;;;;12.72;100.00;101591.81;6249145;22;20898;-83
2023/05/11 06:15:43;;;;;;;21.33;14.30;;;;;;;12.73;100.00;101582.63;6250192;22;20024;-83
2023/05/11 06:18:23;;;;;;;19.17;13.88;;;;;;;12.79;100.00;101588.16;6275120;22;20032;-83
2023/05/11 06:20:50;;;;;;;17.38;12.50;;;;;;;12.85;100.00;101591.75;6249693;22;20021;-83
2023/05/11 06:23:17;;;;;;;19.33;12.73;;;;;;;12.89;100.00;101592.38;6249154;22;20052;-81
2023/05/11 06:25:44;;;;;;;18.88;13.38;;;;;;;12.91;100.00;101593.44;6249680;22;20017;-82
2023/05/11 06:28:11;;;;;;;17.13;12.93;;;;;;;12.93;100.00;101588.41;6274666;22;20092;-80
2023/05/11 06:30:37;;;;;;;17.10;12.57;;;;;;;12.95;100.00;101583.38;6249693;22;20518;-80
2023/05/11 06:33:06;;;;;;;16.00;11.55;;;;;;;13.01;100.00;101589.66;6248272;22;20099;-79
2023/05/11 06:35:35;;;;;;;16.70;11.93;;;;;;;13.08;100.00;101591.31;6249369;22;20021;-79
2023/05/11 06:38:04;;;;;;;17.40;12.00;;;;;;;13.15;100.00;101596.44;6248625;22;20347;-80
2023/05/11 06:40:31;;;;;;;17.40;12.18;;;;;;;13.13;100.00;101590.03;6275127;22;20017;-79
2023/05/11 06:42:58;;;;;;;16.75;12.38;;;;;;;13.17;100.00;101596.03;6248931;22;20044;-80
2023/05/11 06:45:40;;;;;;;18.27;12.50;;;;;;;13.28;100.00;101596.38;6248720;22;20417;-81
2023/05/11 06:48:07;;;;;;;19.00;12.23;;;;;;;13.35;100.00;101591.50;6248145;22;20012;-82
2023/05/11 06:50:34;;;;;;;16.17;11.82;;;;;;;13.44;100.00;101598.84;6251262;22;20023;-82
2023/05/11 06:53:00;;;;;;;18.75;12.90;;;;;;;13.57;100.00;101598.75;6250753;22;20079;-80
2023/05/11 06:55:28;;;;;;;16.52;12.57;;;;;;;13.60;100.00;101611.97;6249132;22;20444;-80
2023/05/11 06:57:55;;;;;;;18.98;13.30;;;;;;;13.68;100.00;101602.50;6251157;22;20349;-80
2023/05/11 07:00:21;;;;;;;16.80;12.32;;;;;;;13.77;100.00;101604.50;6251136;22;20024;-80
2023/05/11 07:02:48;;;;;;;18.40;13.77;;;;;;;13.86;100.00;101601.09;6250536;22;20351;-79
2023/05/11 07:05:14;;;;;;;18.60;13.10;;;;;;;13.82;100.00;101598.56;6250846;22;20016;-80
2023/05/11 07:07:42;;;;;;;18.60;14.05;;;;;;;13.89;100.00;101597.53;6224017;22;20021;-80
2023/05/11 07:10:09;;;;;;;18.33;12.13;;;;;;;14.00;100.00;101598.59;6250520;22;20446;-79
2023/05/11 07:12:36;;;;;;;21.75;14.68;;;;;;;13.99;100.00;101602.47;6250831;22;20021;-79
2023/05/11 07:15:02;;;;;;;21.48;14.68;;;;;;;14.09;100.00;101594.47;6250446;22;20019;-78
2023/05/11 07:17:29;;;;;;;26.05;16.38;;;;;;;14.25;99.93;101594.97;6250213;22;20099;-79
2023/05/11 07:19:55;;;;;;;21.80;15.27;;;;;;;14.43;98.76;101593.50;6250742;22;20043;-79
2023/05/11 07:22:22;;;;;;;22.40;15.60;;;;;;;14.53;99.00;101600.38;6250901;22;20040;-79
2023/05/11 07:24:48;;;;;;;21.67;14.23;;;;;;;14.61;98.98;101598.88;6251136;22;20044;-80
2023/05/11 07:27:15;;;;;;;23.45;14.85;;;;;;;14.62;97.74;101595.03;6250532;22;20023;-79
2023/05/11 07:29:42;;;;;;;19.83;13.27;;;;;;;14.69;96.04;101602.78;6250861;22;20027;-79
2023/05/11 07:32:08;;;;;;;18.05;11.70;;;;;;;14.66;94.18;101595.63;6249915;22;20446;-79
2023/05/11 07:34:35;;;;;;;14.18;11.48;;;;;;;14.66;94.66;101603.66;6250820;22;20020;-79
2023/05/11 07:37:01;;;;;;;10.77;8.60;;;;;;;14.61;92.04;101605.00;6250554;22;20067;-79
2023/05/11 07:39:28;;;;;;;10.32;8.77;;;;;;;14.72;92.06;101604.56;6250752;22;20434;-79
2023/05/11 07:41:54;;;;;;;10.68;8.57;;;;;;;15.07;91.43;101606.91;6249146;22;20025;-79
2023/05/11 07:44:21;;;;;;;8.93;7.70;;;;;;;15.52;89.22;101608.75;6250730;22;20017;-79
2023/05/11 07:46:47;;;;;;;9.23;7.18;;;;;;;16.00;88.10;101604.22;6250522;22;20071;-79
2023/05/11 07:49:14;;;;;;;7.82;6.97;;;;;;;16.26;86.57;101605.28;6250266;22;20467;-80
2023/05/11 07:51:53;;;;;;;8.40;7.53;;;;;;;16.19;84.07;101610.97;6249289;22;20410;-80
2023/05/11 07:54:20;;;;;;;8.00;7.20;;;;;;;16.00;84.44;101602.28;6248344;22;20028;-80
2023/05/11 07:56:47;;;;;;;10.05;6.80;;;;;;;15.88;85.13;101607.88;6250647;22;20489;-80
2023/05/11 07:59:13;;;;;;;7.32;6.32;;;;;;;15.86;85.47;101604.91;6250339;22;20019;-79
2023/05/11 08:01:40;;;;;;;8.48;6.65;;;;;;;15.90;86.64;101611.59;6250402;22;20024;-79
2023/05/11 08:04:06;;;;;;;7.72;6.93;;;;;;;15.94;83.62;101608.75;6250623;22;20017;-80
2023/05/11 08:06:33;;;;;;;7.45;6.72;;;;;;;15.94;81.82;101612.19;6249718;22;20019;-84
2023/05/11 08:09:00;;;;;;;8.90;6.93;;;;;;;16.01;84.13;101613.75;6250578;22;20439;-79
2023/05/11 08:11:26;;;;;;;9.80;7.30;;;;;;;16.05;83.91;101613.59;6250731;22;20020;-81
2023/05/11 08:13:53;;;;;;;7.72;6.93;;;;;;;16.04;81.50;101618.22;6250746;22;20020;-81
2023/05/11 08:16:19;;;;;;;7.68;6.88;;;;;;;16.10;81.20;101612.97;6249995;22;20012;-82
2023/05/11 08:18:46;;;;;;;7.40;6.75;;;;;;;16.15;80.12;101618.47;6250483;22;20013;-80
2023/05/11 08:21:13;;;;;;;7.90;6.32;;;;;;;16.24;79.21;101618.41;6250183;22;20016;-80
2023/05/11 08:23:39;;;;;;;6.60;6.00;;;;;;;16.40;78.14;101611.88;6250721;22;20240;-80
2023/05/11 08:26:07;;;;;;;10.05;6.95;;;;;;;16.53;78.52;101620.47;6250228;22;20070;-80
2023/05/11 08:28:35;;;;;;;6.97;6.35;;;;;;;16.62;80.38;101622.34;6250469;22;20017;-82
2023/05/11 08:31:01;;;;;;;7.38;6.68;;;;;;;16.58;76.14;101619.81;6248020;22;20047;-80
2023/05/11 08:33:28;;;;;;;7.85;6.65;;;;;;;16.73;76.48;101619.91;6250514;22;20012;-82
2023/05/11 08:35:57;;;;;;;8.07;7.28;;;;;;;16.89;76.37;101616.00;6223452;22;20095;-79
2023/05/11 08:38:24;;;;;;;7.72;7.03;;;;;;;17.02;74.92;101618.44;6250472;22;20024;-78
2023/05/11 08:40:51;;;;;;;6.90;6.30;;;;;;;17.18;74.65;101620.69;6249100;22;20017;-81
2023/05/11 08:43:18;;;;;;;6.63;6.13;;;;;;;17.26;76.64;101617.13;6248526;22;20067;-80
2023/05/11 08:45:48;;;;;;;6.97;6.38;;;;;;;17.40;74.21;101618.34;6250188;22;20009;-80
2023/05/11 08:48:19;;;;;;;6.03;5.53;;;;;;;17.34;74.22;101618.25;6250636;22;20020;-81
2023/05/11 08:50:46;;;;;;;5.80;5.35;;;;;;;17.51;74.46;101621.22;6248683;22;20103;-82
2023/05/11 08:53:13;;;;;;;6.63;5.93;;;;;;;17.73;75.13;101614.69;6250089;22;20347;-80
2023/05/11 08:55:41;;;;;;;6.32;5.72;;;;;;;17.71;73.28;101623.25;6250004;22;20019;-80
2023/05/11 08:58:08;;;;;;;6.78;6.07;;;;;;;17.70;71.20;101626.41;6249792;22;20394;-80
2023/05/11 09:00:36;;;;;;;6.15;5.60;;;;;;;17.76;71.78;101624.53;6250437;22;20016;-80
2023/05/11 09:03:03;;;;;;;5.80;5.30;;;;;;;17.84;69.61;101620.25;6249841;22;20013;-79
2023/05/11 09:05:31;;;;;;;6.32;5.82;;;;;;;17.99;71.61;101610.19;6248982;22;20040;-80
2023/05/11 09:08:03;;;;;;;6.15;5.63;;;;;;;18.08;70.57;101614.69;6249404;22;20084;-81
2023/05/11 09:10:31;;;;;;;55.53;40.53;;;;;;;17.94;69.63;101614.28;6249848;22;20052;-80
2023/05/11 09:12:57;;;;;;;9.48;8.48;;;;;;;17.86;70.29;101612.44;6248864;22;20075;-83
2023/05/11 09:15:24;;;;;;;9.15;7.20;;;;;;;17.89;70.75;101617.66;6250484;22;20063;-79
2023/05/11 09:17:50;;;;;;;10.25;8.38;;;;;;;18.01;68.64;101613.13;6250519;22;20017;-80
2023/05/11 09:20:27;;;;;;;6.97;6.38;;;;;;;18.14;69.24;101616.25;6249948;22;20425;-80
2023/05/11 09:22:55;;;;;;;6.60;6.03;;;;;;;18.41;70.85;101611.66;6250462;22;20024;-82
2023/05/11 09:25:23;;;;;;;7.50;6.80;;;;;;;18.91;68.52;101609.53;6250367;22;20074;-79
2023/05/11 09:27:49;;;;;;;7.93;7.15;;;;;;;19.17;68.54;101609.53;6249556;22;20088;-82
2023/05/11 09:30:17;;;;;;;6.93;6.43;;;;;;;19.60;67.41;101613.78;6248274;22;20061;-81
2023/05/11 09:32:52;;;;;;;7.50;6.80;;;;;;;19.79;63.81;101614.16;6250550;22;20017;-82
2023/05/11 09:35:33;;;;;;;8.02;6.95;;;;;;;20.14;65.93;101615.81;6249971;22;20463;-81
2023/05/11 09:38:08;;;;;;;8.70;7.82;;;;;;;20.38;62.39;101612.75;6248282;22;20020;-83
2023/05/11 09:40:38;;;;;;;9.20;8.40;;;;;;;20.47;62.20;101615.94;6250384;22;20017;-80
2023/05/11 09:43:16;;;;;;;9.77;8.80;;;;;;;20.62;61.75;101604.94;6249526;22;20017;-82
2023/05/11 09:45:45;;;;;;;15.15;10.02;;;;;;;20.12;60.26;101618.25;6250059;22;20012;-83
2023/05/11 09:48:17;;;;;;;10.65;9.68;;;;;;;19.60;61.84;101605.69;6249924;22;20009;-82
2023/05/11 09:50:45;;;;;;;9.73;8.93;;;;;;;19.72;64.77;101606.50;6248519;22;20078;-81
2023/05/11 09:53:11;;;;;;;11.23;10.20;;;;;;;19.71;62.61;101609.69;6249522;22;20017;-81
2023/05/11 09:55:38;;;;;;;11.60;10.50;;;;;;;19.42;62.03;101613.38;6249790;22;20398;-83
2023/05/11 09:58:04;;;;;;;11.05;10.05;;;;;;;19.45;61.63;101612.44;6248364;22;20514;-82
2023/05/11 10:00:31;;;;;;;11.88;10.75;;;;;;;19.50;61.13;101603.63;6250033;22;20060;-82
2023/05/11 10:03:00;;;;;;;11.10;10.05;;;;;;;19.59;61.74;101612.31;6249696;22;20075;-82
2023/05/11 10:05:27;;;;;;;11.48;10.45;;;;;;;19.58;60.56;101612.81;6250122;22;20012;-83
2023/05/11 10:08:02;;;;;;;10.40;9.40;;;;;;;19.74;60.89;101603.31;6249783;22;20012;-82
2023/05/11 10:10:31;;;;;;;11.13;10.02;;;;;;;19.84;59.57;101610.00;6249423;22;20060;-81
2023/05/11 10:13:02;;;;;;;10.07;9.10;;;;;;;19.77;58.92;101607.75;6249488;22;20513;-82
2023/05/11 10:15:31;;;;;;;10.80;9.77;;;;;;;19.48;58.41;101606.06;6250007;22;20442;-82
2023/05/11 10:18:01;;;;;;;9.35;8.23;;;;;;;19.27;61.06;101616.97;6249892;22;20008;-82
2023/05/11 10:20:27;;;;;;;15.25;13.10;;;;;;;19.12;63.45;101607.53;6250437;22;20017;-81
2023/05/11 10:22:54;;;;;;;17.25;15.25;;;;;;;18.91;65.55;101618.34;6251493;22;20017;-84
2023/05/11 10:25:22;;;;;;;18.63;16.65;;;;;;;18.67;66.42;101619.84;6250894;22;20052;-84
2023/05/11 10:27:50;;;;;;;19.48;16.58;;;;;;;18.50;67.07;101611.53;6251299;22;20020;-84
2023/05/11 10:30:16;;;;;;;20.88;17.13;;;;;;;18.36;67.12;101609.66;6252143;22;20016;-86
2023/05/11 10:32:47;;;;;;;21.15;16.05;;;;;;;18.28;67.89;101612.03;6251428;22;20024;-79
2023/05/11 10:35:14;;;;;;;18.33;16.30;;;;;;;18.15;68.72;101620.44;6251196;22;20438;-81
2023/05/11 10:37:44;;;;;;;21.85;16.45;;;;;;;18.06;68.80;101615.16;6251180;22;20274;-83
2023/05/11 10:40:11;;;;;;;22.60;16.23;;;;;;;17.91;70.29;101617.91;6250413;22;20075;-84
2023/05/11 10:43:03;;;;;;;18.73;15.60;;;;;;;17.79;70.64;101623.59;6251356;22;20052;-82
2023/05/11 10:45:50;;;;;;;;;;;;;;;17.68;71.23;101621.50;6252205;22;20013;-81
2023/05/11 10:48:32;;;;;;;17.13;13.88;;;;;;;17.52;73.59;101616.59;6249754;22;19920;-83
2023/05/11 10:51:14;;;;;;;20.45;14.15;;;;;;;17.35;75.18;101619.00;6249642;22;20350;-83
2023/05/11 10:54:08;;;;;;;21.83;13.98;;;;;;;17.09;79.82;101640.34;6251122;22;20016;-80
2023/05/11 10:56:55;;;;;;;19.40;12.95;;;;;;;16.79;82.17;101633.44;6220816;23;20040;-81
2023/05/11 10:59:34;;;;;;;28.90;9.52;;;;;;;16.40;83.44;101638.75;6194311;23;20017;-82
2023/05/11 11:02:03;;;;;;;22.05;10.40;;;;;;;16.14;86.18;101643.84;6220678;23;20017;-83
2023/05/11 11:04:44;;;;;;;19.38;10.38;;;;;;;15.99;89.19;101633.00;6195846;23;20020;-85
2023/05/11 11:07:15;;;;;;;16.53;10.73;;;;;;;15.93;91.18;101634.13;6221361;23;20020;-84
2023/05/11 11:10:05;;;;;;;17.33;10.80;;;;;;;15.81;91.59;101632.38;6219768;23;20221;-85
2023/05/11 11:12:33;;;;;;;11.65;8.77;;;;;;;15.63;91.97;101630.47;6220212;23;20021;-83
2023/05/11 11:15:05;;;;;;;16.33;10.27;;;;;;;15.48;93.15;101627.69;6219458;23;20478;-84